sensor_id;sensor_type;location;lat;lon;timestamp;temperature;humidity
831;DHT22;397;50.564;7.272;2023-09-19T00:00:44;17.90;99.90
831;DHT22;397;50.564;7.272;2023-09-19T00:03:13;18.00;99.90
831;DHT22;397;50.564;7.272;2023-09-19T00:05:41;18.00;99.90
831;DHT22;397;50.564;7.272;2023-09-19T00:08:12;18.10;99.90
831;DHT22;397;50.564;7.272;2023-09-19T00:10:43;18.10;99.90
831;DHT22;397;50.564;7.272;2023-09-19T00:13:10;18.10;99.90
831;DHT22;397;50.564;7.272;2023-09-19T00:15:43;18.00;99.90
831;DHT22;397;50.564;7.272;2023-09-19T00:18:12;17.90;99.90
831;DHT22;397;50.564;7.272;2023-09-19T00:20:42;17.90;99.90
831;DHT22;397;50.564;7.272;2023-09-19T00:23:09;17.80;99.90
831;DHT22;397;50.564;7.272;2023-09-19T00:25:37;17.90;99.90
831;DHT22;397;50.564;7.272;2023-09-19T00:28:05;17.90;99.90
831;DHT22;397;50.564;7.272;2023-09-19T00:30:34;17.90;99.90
831;DHT22;397;50.564;7.272;2023-09-19T00:33:02;17.80;99.90
831;DHT22;397;50.564;7.272;2023-09-19T00:35:32;17.80;99.90
831;DHT22;397;50.564;7.272;2023-09-19T00:37:59;17.80;99.90
831;DHT22;397;50.564;7.272;2023-09-19T00:40:28;17.70;99.90
831;DHT22;397;50.564;7.272;2023-09-19T00:42:59;17.70;99.90
831;DHT22;397;50.564;7.272;2023-09-19T00:45:27;17.70;99.90
831;DHT22;397;50.564;7.272;2023-09-19T00:47:56;17.70;99.90
831;DHT22;397;50.564;7.272;2023-09-19T00:50:25;17.70;99.90
831;DHT22;397;50.564;7.272;2023-09-19T00:52:56;17.50;99.90
831;DHT22;397;50.564;7.272;2023-09-19T00:55:26;17.50;99.90
831;DHT22;397;50.564;7.272;2023-09-19T00:57:56;17.40;99.90
831;DHT22;397;50.564;7.272;2023-09-19T01:00:25;17.30;99.90
831;DHT22;397;50.564;7.272;2023-09-19T01:02:53;17.30;99.90
831;DHT22;397;50.564;7.272;2023-09-19T01:05:21;17.30;99.90
831;DHT22;397;50.564;7.272;2023-09-19T01:07:50;17.20;99.90
831;DHT22;397;50.564;7.272;2023-09-19T01:10:20;17.10;99.90
831;DHT22;397;50.564;7.272;2023-09-19T01:15:49;17.40;99.90
831;DHT22;397;50.564;7.272;2023-09-19T01:18:26;17.40;99.90
831;DHT22;397;50.564;7.272;2023-09-19T01:21:14;17.20;99.90
831;DHT22;397;50.564;7.272;2023-09-19T01:26:39;17.10;99.90
831;DHT22;397;50.564;7.272;2023-09-19T01:29:14;17.10;99.90
831;DHT22;397;50.564;7.272;2023-09-19T01:31:43;17.10;99.90
831;DHT22;397;50.564;7.272;2023-09-19T01:34:12;17.10;99.90
831;DHT22;397;50.564;7.272;2023-09-19T01:36:39;17.10;99.90
831;DHT22;397;50.564;7.272;2023-09-19T01:39:10;17.00;99.90
831;DHT22;397;50.564;7.272;2023-09-19T01:41:51;17.00;99.90
831;DHT22;397;50.564;7.272;2023-09-19T01:44:21;17.10;99.90
831;DHT22;397;50.564;7.272;2023-09-19T01:46:47;17.20;99.90
831;DHT22;397;50.564;7.272;2023-09-19T01:49:37;17.30;99.90
831;DHT22;397;50.564;7.272;2023-09-19T01:52:08;17.30;99.90
831;DHT22;397;50.564;7.272;2023-09-19T01:54:39;17.20;99.90
831;DHT22;397;50.564;7.272;2023-09-19T01:57:16;17.20;99.90
831;DHT22;397;50.564;7.272;2023-09-19T01:59:48;17.10;99.90
831;DHT22;397;50.564;7.272;2023-09-19T02:02:17;17.10;99.90
831;DHT22;397;50.564;7.272;2023-09-19T02:04:49;17.30;99.90
831;DHT22;397;50.564;7.272;2023-09-19T02:07:17;17.30;99.90
831;DHT22;397;50.564;7.272;2023-09-19T02:09:44;17.20;99.90
831;DHT22;397;50.564;7.272;2023-09-19T02:12:14;17.20;99.90
831;DHT22;397;50.564;7.272;2023-09-19T02:14:42;17.20;99.90
831;DHT22;397;50.564;7.272;2023-09-19T02:17:09;17.20;99.90
831;DHT22;397;50.564;7.272;2023-09-19T02:19:38;17.20;99.90
831;DHT22;397;50.564;7.272;2023-09-19T02:22:07;17.30;99.90
831;DHT22;397;50.564;7.272;2023-09-19T02:24:37;17.30;99.90
831;DHT22;397;50.564;7.272;2023-09-19T02:27:05;17.30;99.90
831;DHT22;397;50.564;7.272;2023-09-19T02:29:34;17.30;99.90
831;DHT22;397;50.564;7.272;2023-09-19T02:32:01;17.20;99.90
831;DHT22;397;50.564;7.272;2023-09-19T02:34:29;17.30;99.90
831;DHT22;397;50.564;7.272;2023-09-19T02:36:56;17.20;99.90
831;DHT22;397;50.564;7.272;2023-09-19T02:39:24;17.20;99.90
831;DHT22;397;50.564;7.272;2023-09-19T02:41:51;17.20;99.90
831;DHT22;397;50.564;7.272;2023-09-19T02:44:19;17.20;99.90
831;DHT22;397;50.564;7.272;2023-09-19T02:46:46;17.30;99.90
831;DHT22;397;50.564;7.272;2023-09-19T02:49:14;17.30;99.90
831;DHT22;397;50.564;7.272;2023-09-19T02:51:41;17.20;99.90
831;DHT22;397;50.564;7.272;2023-09-19T02:54:09;17.30;99.90
831;DHT22;397;50.564;7.272;2023-09-19T02:56:38;17.30;99.90
831;DHT22;397;50.564;7.272;2023-09-19T02:59:05;17.30;99.90
831;DHT22;397;50.564;7.272;2023-09-19T03:01:32;17.40;99.90
831;DHT22;397;50.564;7.272;2023-09-19T03:04:00;17.30;99.90
831;DHT22;397;50.564;7.272;2023-09-19T03:06:28;17.30;99.90
831;DHT22;397;50.564;7.272;2023-09-19T03:08:57;17.30;99.90
831;DHT22;397;50.564;7.272;2023-09-19T03:11:26;17.30;99.90
831;DHT22;397;50.564;7.272;2023-09-19T03:13:54;17.40;99.90
831;DHT22;397;50.564;7.272;2023-09-19T03:16:22;17.40;99.90
831;DHT22;397;50.564;7.272;2023-09-19T03:18:49;17.40;99.90
831;DHT22;397;50.564;7.272;2023-09-19T03:21:17;17.40;99.90
831;DHT22;397;50.564;7.272;2023-09-19T03:23:45;17.30;99.90
831;DHT22;397;50.564;7.272;2023-09-19T03:26:13;17.10;99.90
831;DHT22;397;50.564;7.272;2023-09-19T03:28:42;17.10;99.90
831;DHT22;397;50.564;7.272;2023-09-19T03:31:10;17.00;99.90
831;DHT22;397;50.564;7.272;2023-09-19T03:33:38;16.90;99.90
831;DHT22;397;50.564;7.272;2023-09-19T03:36:05;16.80;99.90
831;DHT22;397;50.564;7.272;2023-09-19T03:38:33;16.70;99.90
831;DHT22;397;50.564;7.272;2023-09-19T03:41:02;16.60;99.90
831;DHT22;397;50.564;7.272;2023-09-19T03:43:31;16.60;99.90
831;DHT22;397;50.564;7.272;2023-09-19T03:46:01;16.70;99.90
831;DHT22;397;50.564;7.272;2023-09-19T03:48:31;16.70;99.90
831;DHT22;397;50.564;7.272;2023-09-19T03:50:58;16.70;99.90
831;DHT22;397;50.564;7.272;2023-09-19T03:53:26;16.60;99.90
831;DHT22;397;50.564;7.272;2023-09-19T03:55:53;16.70;99.90
831;DHT22;397;50.564;7.272;2023-09-19T03:58:21;16.60;99.90
831;DHT22;397;50.564;7.272;2023-09-19T04:00:49;16.60;99.90
831;DHT22;397;50.564;7.272;2023-09-19T04:03:16;16.70;99.90
831;DHT22;397;50.564;7.272;2023-09-19T04:05:46;16.70;99.90
831;DHT22;397;50.564;7.272;2023-09-19T04:08:15;16.60;99.90
831;DHT22;397;50.564;7.272;2023-09-19T04:10:43;16.60;99.90
831;DHT22;397;50.564;7.272;2023-09-19T04:13:11;16.60;99.90
831;DHT22;397;50.564;7.272;2023-09-19T04:15:39;16.30;99.90
831;DHT22;397;50.564;7.272;2023-09-19T04:18:07;16.30;99.90
831;DHT22;397;50.564;7.272;2023-09-19T04:20:35;16.40;99.90
831;DHT22;397;50.564;7.272;2023-09-19T04:23:02;16.40;99.90
831;DHT22;397;50.564;7.272;2023-09-19T04:25:31;16.50;99.90
831;DHT22;397;50.564;7.272;2023-09-19T04:27:59;16.50;99.90
831;DHT22;397;50.564;7.272;2023-09-19T04:30:26;16.40;99.90
831;DHT22;397;50.564;7.272;2023-09-19T04:32:54;16.50;99.90
831;DHT22;397;50.564;7.272;2023-09-19T04:35:21;16.40;99.90
831;DHT22;397;50.564;7.272;2023-09-19T04:37:51;16.40;99.90
831;DHT22;397;50.564;7.272;2023-09-19T04:40:19;16.50;99.90
831;DHT22;397;50.564;7.272;2023-09-19T04:42:54;16.60;99.90
831;DHT22;397;50.564;7.272;2023-09-19T04:45:25;16.50;99.90
831;DHT22;397;50.564;7.272;2023-09-19T04:47:53;16.50;99.90
831;DHT22;397;50.564;7.272;2023-09-19T04:50:21;16.40;99.90
831;DHT22;397;50.564;7.272;2023-09-19T04:52:51;16.40;99.90
831;DHT22;397;50.564;7.272;2023-09-19T04:55:18;16.50;99.90
831;DHT22;397;50.564;7.272;2023-09-19T04:57:48;16.50;99.90
831;DHT22;397;50.564;7.272;2023-09-19T05:00:20;16.60;99.90
831;DHT22;397;50.564;7.272;2023-09-19T05:02:52;16.60;99.90
831;DHT22;397;50.564;7.272;2023-09-19T05:05:19;16.60;99.90
831;DHT22;397;50.564;7.272;2023-09-19T05:07:49;16.60;99.90
831;DHT22;397;50.564;7.272;2023-09-19T05:10:18;16.60;99.90
831;DHT22;397;50.564;7.272;2023-09-19T05:12:45;16.60;99.90
831;DHT22;397;50.564;7.272;2023-09-19T05:15:15;16.60;99.90
831;DHT22;397;50.564;7.272;2023-09-19T05:17:48;16.70;99.90
831;DHT22;397;50.564;7.272;2023-09-19T05:20:17;16.80;99.90
831;DHT22;397;50.564;7.272;2023-09-19T05:23:01;16.80;99.90
831;DHT22;397;50.564;7.272;2023-09-19T05:25:31;16.70;99.90
831;DHT22;397;50.564;7.272;2023-09-19T05:27:59;16.70;99.90
831;DHT22;397;50.564;7.272;2023-09-19T05:30:28;16.70;99.90
831;DHT22;397;50.564;7.272;2023-09-19T05:32:56;16.70;99.90
831;DHT22;397;50.564;7.272;2023-09-19T05:35:24;16.70;99.90
831;DHT22;397;50.564;7.272;2023-09-19T05:37:53;16.70;99.90
831;DHT22;397;50.564;7.272;2023-09-19T05:40:22;16.80;99.90
831;DHT22;397;50.564;7.272;2023-09-19T05:42:49;16.90;99.90
831;DHT22;397;50.564;7.272;2023-09-19T05:45:20;16.90;99.90
831;DHT22;397;50.564;7.272;2023-09-19T05:47:51;16.90;99.90
831;DHT22;397;50.564;7.272;2023-09-19T05:50:21;16.90;99.90
831;DHT22;397;50.564;7.272;2023-09-19T05:52:53;16.90;99.90
831;DHT22;397;50.564;7.272;2023-09-19T05:55:22;16.90;99.90
831;DHT22;397;50.564;7.272;2023-09-19T05:57:52;16.90;99.90
831;DHT22;397;50.564;7.272;2023-09-19T06:00:24;16.80;99.90
831;DHT22;397;50.564;7.272;2023-09-19T06:02:55;16.90;99.90
831;DHT22;397;50.564;7.272;2023-09-19T06:05:24;16.90;99.90
831;DHT22;397;50.564;7.272;2023-09-19T06:07:54;16.70;99.90
831;DHT22;397;50.564;7.272;2023-09-19T06:10:22;16.80;99.90
831;DHT22;397;50.564;7.272;2023-09-19T06:12:49;16.90;99.90
831;DHT22;397;50.564;7.272;2023-09-19T06:15:17;16.90;99.90
831;DHT22;397;50.564;7.272;2023-09-19T06:17:55;16.90;99.90
831;DHT22;397;50.564;7.272;2023-09-19T06:20:21;17.10;99.90
831;DHT22;397;50.564;7.272;2023-09-19T06:22:49;17.00;99.90
831;DHT22;397;50.564;7.272;2023-09-19T06:25:18;17.10;99.90
831;DHT22;397;50.564;7.272;2023-09-19T06:27:51;17.10;99.90
831;DHT22;397;50.564;7.272;2023-09-19T06:30:23;17.10;99.90
831;DHT22;397;50.564;7.272;2023-09-19T06:33:00;17.10;99.90
831;DHT22;397;50.564;7.272;2023-09-19T06:35:25;17.30;99.90
831;DHT22;397;50.564;7.272;2023-09-19T06:37:56;17.30;99.90
831;DHT22;397;50.564;7.272;2023-09-19T06:40:24;17.40;99.90
831;DHT22;397;50.564;7.272;2023-09-19T06:42:52;17.30;99.90
831;DHT22;397;50.564;7.272;2023-09-19T06:45:20;17.30;99.90
831;DHT22;397;50.564;7.272;2023-09-19T06:47:50;17.30;99.90
831;DHT22;397;50.564;7.272;2023-09-19T06:50:21;17.40;99.90
831;DHT22;397;50.564;7.272;2023-09-19T06:52:50;17.40;99.90
831;DHT22;397;50.564;7.272;2023-09-19T06:55:20;17.50;99.90
831;DHT22;397;50.564;7.272;2023-09-19T06:57:49;17.40;99.90
831;DHT22;397;50.564;7.272;2023-09-19T07:00:17;17.40;99.90
831;DHT22;397;50.564;7.272;2023-09-19T07:03:07;17.50;99.90
831;DHT22;397;50.564;7.272;2023-09-19T07:05:42;17.70;99.90
831;DHT22;397;50.564;7.272;2023-09-19T07:08:10;17.80;99.90
831;DHT22;397;50.564;7.272;2023-09-19T07:10:39;17.80;99.90
831;DHT22;397;50.564;7.272;2023-09-19T07:13:18;18.00;99.90
831;DHT22;397;50.564;7.272;2023-09-19T07:15:45;18.10;99.90
831;DHT22;397;50.564;7.272;2023-09-19T07:18:16;18.30;99.90
831;DHT22;397;50.564;7.272;2023-09-19T07:20:45;18.50;99.90
831;DHT22;397;50.564;7.272;2023-09-19T07:23:16;18.80;99.90
831;DHT22;397;50.564;7.272;2023-09-19T07:25:45;19.10;99.90
831;DHT22;397;50.564;7.272;2023-09-19T07:28:12;19.40;99.90
831;DHT22;397;50.564;7.272;2023-09-19T07:30:40;19.50;99.90
831;DHT22;397;50.564;7.272;2023-09-19T07:33:08;19.40;99.90
831;DHT22;397;50.564;7.272;2023-09-19T07:35:39;19.40;99.90
831;DHT22;397;50.564;7.272;2023-09-19T07:38:07;19.20;99.90
831;DHT22;397;50.564;7.272;2023-09-19T07:40:36;19.10;99.90
831;DHT22;397;50.564;7.272;2023-09-19T07:43:04;19.20;99.90
831;DHT22;397;50.564;7.272;2023-09-19T07:45:33;19.10;99.90
831;DHT22;397;50.564;7.272;2023-09-19T07:48:00;19.30;99.90
831;DHT22;397;50.564;7.272;2023-09-19T07:50:30;19.30;99.90
831;DHT22;397;50.564;7.272;2023-09-19T07:52:58;19.60;99.90
831;DHT22;397;50.564;7.272;2023-09-19T07:55:25;19.90;99.90
831;DHT22;397;50.564;7.272;2023-09-19T07:57:53;20.00;99.90
831;DHT22;397;50.564;7.272;2023-09-19T08:00:21;20.00;99.90
831;DHT22;397;50.564;7.272;2023-09-19T08:02:48;19.90;99.90
831;DHT22;397;50.564;7.272;2023-09-19T08:05:16;19.80;99.90
831;DHT22;397;50.564;7.272;2023-09-19T08:07:45;19.70;99.90
831;DHT22;397;50.564;7.272;2023-09-19T08:10:16;19.50;99.90
831;DHT22;397;50.564;7.272;2023-09-19T08:12:47;19.60;99.90
831;DHT22;397;50.564;7.272;2023-09-19T08:15:19;19.60;99.90
831;DHT22;397;50.564;7.272;2023-09-19T08:17:48;19.60;99.90
831;DHT22;397;50.564;7.272;2023-09-19T08:20:16;19.80;99.90
831;DHT22;397;50.564;7.272;2023-09-19T08:22:52;19.60;99.90
831;DHT22;397;50.564;7.272;2023-09-19T08:25:23;19.40;99.90
831;DHT22;397;50.564;7.272;2023-09-19T08:27:52;19.50;99.90
831;DHT22;397;50.564;7.272;2023-09-19T08:30:24;19.50;99.90
831;DHT22;397;50.564;7.272;2023-09-19T08:33:00;19.60;99.90
831;DHT22;397;50.564;7.272;2023-09-19T08:35:29;19.80;99.90
831;DHT22;397;50.564;7.272;2023-09-19T08:37:57;20.00;99.90
831;DHT22;397;50.564;7.272;2023-09-19T08:40:26;20.00;99.90
831;DHT22;397;50.564;7.272;2023-09-19T08:42:56;20.10;99.90
831;DHT22;397;50.564;7.272;2023-09-19T08:45:25;20.40;99.90
831;DHT22;397;50.564;7.272;2023-09-19T08:51:00;20.20;99.90
831;DHT22;397;50.564;7.272;2023-09-19T08:53:10;20.20;99.90
831;DHT22;397;50.564;7.272;2023-09-19T08:55:36;20.30;99.90
831;DHT22;397;50.564;7.272;2023-09-19T08:58:04;20.30;99.90
831;DHT22;397;50.564;7.272;2023-09-19T09:00:34;20.20;99.90
831;DHT22;397;50.564;7.272;2023-09-19T09:03:03;20.20;99.90
831;DHT22;397;50.564;7.272;2023-09-19T09:05:33;20.20;99.90
831;DHT22;397;50.564;7.272;2023-09-19T09:08:05;20.00;99.90
831;DHT22;397;50.564;7.272;2023-09-19T09:10:32;20.00;99.90
831;DHT22;397;50.564;7.272;2023-09-19T09:13:00;20.10;99.90
831;DHT22;397;50.564;7.272;2023-09-19T09:15:30;20.10;99.90
831;DHT22;397;50.564;7.272;2023-09-19T09:17:59;20.10;99.90
831;DHT22;397;50.564;7.272;2023-09-19T09:20:26;20.20;99.90
831;DHT22;397;50.564;7.272;2023-09-19T09:22:55;20.20;99.90
831;DHT22;397;50.564;7.272;2023-09-19T09:28:12;20.20;99.90
831;DHT22;397;50.564;7.272;2023-09-19T09:30:41;20.20;99.90
831;DHT22;397;50.564;7.272;2023-09-19T09:33:10;20.30;99.90
831;DHT22;397;50.564;7.272;2023-09-19T09:35:49;20.10;99.90
831;DHT22;397;50.564;7.272;2023-09-19T09:38:20;20.00;99.90
831;DHT22;397;50.564;7.272;2023-09-19T09:40:49;20.20;99.90
831;DHT22;397;50.564;7.272;2023-09-19T09:43:35;20.30;99.90
831;DHT22;397;50.564;7.272;2023-09-19T09:46:10;20.10;99.90
831;DHT22;397;50.564;7.272;2023-09-19T09:49:00;20.30;99.90
831;DHT22;397;50.564;7.272;2023-09-19T09:51:30;20.40;99.90
831;DHT22;397;50.564;7.272;2023-09-19T09:54:14;20.40;99.90
831;DHT22;397;50.564;7.272;2023-09-19T09:56:59;20.50;99.90
831;DHT22;397;50.564;7.272;2023-09-19T10:02:15;20.50;99.90
831;DHT22;397;50.564;7.272;2023-09-19T10:04:44;20.50;99.90
831;DHT22;397;50.564;7.272;2023-09-19T10:07:23;20.40;99.90
831;DHT22;397;50.564;7.272;2023-09-19T10:09:47;20.60;99.90
831;DHT22;397;50.564;7.272;2023-09-19T10:12:15;20.60;99.90
831;DHT22;397;50.564;7.272;2023-09-19T10:14:45;20.70;99.90
831;DHT22;397;50.564;7.272;2023-09-19T10:17:15;20.80;99.90
831;DHT22;397;50.564;7.272;2023-09-19T10:19:54;20.80;99.90
831;DHT22;397;50.564;7.272;2023-09-19T10:22:24;20.90;99.90
831;DHT22;397;50.564;7.272;2023-09-19T10:24:57;20.90;99.90
831;DHT22;397;50.564;7.272;2023-09-19T10:27:26;20.90;99.90
831;DHT22;397;50.564;7.272;2023-09-19T10:29:56;20.90;99.90
831;DHT22;397;50.564;7.272;2023-09-19T10:32:27;21.00;99.90
831;DHT22;397;50.564;7.272;2023-09-19T10:34:56;21.00;99.90
831;DHT22;397;50.564;7.272;2023-09-19T10:37:24;21.00;99.90
831;DHT22;397;50.564;7.272;2023-09-19T10:39:55;20.90;99.90
831;DHT22;397;50.564;7.272;2023-09-19T10:42:24;20.70;99.90
831;DHT22;397;50.564;7.272;2023-09-19T10:44:54;20.70;99.90
831;DHT22;397;50.564;7.272;2023-09-19T10:47:22;20.80;99.90
831;DHT22;397;50.564;7.272;2023-09-19T10:49:50;20.90;99.90
831;DHT22;397;50.564;7.272;2023-09-19T10:52:21;20.90;99.90
831;DHT22;397;50.564;7.272;2023-09-19T10:54:51;21.00;99.90
831;DHT22;397;50.564;7.272;2023-09-19T10:57:24;21.10;99.90
831;DHT22;397;50.564;7.272;2023-09-19T11:00:07;21.10;99.90
831;DHT22;397;50.564;7.272;2023-09-19T11:05:42;20.90;99.90
831;DHT22;397;50.564;7.272;2023-09-19T11:08:11;20.90;99.90
831;DHT22;397;50.564;7.272;2023-09-19T11:10:51;21.00;99.90
831;DHT22;397;50.564;7.272;2023-09-19T11:13:26;21.10;99.90
831;DHT22;397;50.564;7.272;2023-09-19T11:26:45;21.10;99.90
831;DHT22;397;50.564;7.272;2023-09-19T11:29:30;21.00;97.30
831;DHT22;397;50.564;7.272;2023-09-19T11:31:58;21.00;97.00
831;DHT22;397;50.564;7.272;2023-09-19T11:34:39;21.00;97.90
831;DHT22;397;50.564;7.272;2023-09-19T11:42:46;21.10;96.20
831;DHT22;397;50.564;7.272;2023-09-19T11:48:20;21.30;95.80
831;DHT22;397;50.564;7.272;2023-09-19T11:50:52;21.30;95.60
831;DHT22;397;50.564;7.272;2023-09-19T11:53:21;21.40;94.20
831;DHT22;397;50.564;7.272;2023-09-19T11:55:50;21.30;93.50
831;DHT22;397;50.564;7.272;2023-09-19T11:58:19;21.20;93.40
831;DHT22;397;50.564;7.272;2023-09-19T12:00:54;21.10;92.30
831;DHT22;397;50.564;7.272;2023-09-19T12:03:17;21.00;93.00
831;DHT22;397;50.564;7.272;2023-09-19T12:05:45;21.10;93.70
831;DHT22;397;50.564;7.272;2023-09-19T12:08:14;21.20;93.90
831;DHT22;397;50.564;7.272;2023-09-19T12:10:48;21.20;93.10
831;DHT22;397;50.564;7.272;2023-09-19T12:13:17;21.10;92.50
831;DHT22;397;50.564;7.272;2023-09-19T12:15:45;21.00;91.70
831;DHT22;397;50.564;7.272;2023-09-19T12:18:29;21.00;92.30
831;DHT22;397;50.564;7.272;2023-09-19T12:20:57;20.90;92.20
831;DHT22;397;50.564;7.272;2023-09-19T12:23:25;21.00;93.60
831;DHT22;397;50.564;7.272;2023-09-19T12:25:53;21.10;92.60
831;DHT22;397;50.564;7.272;2023-09-19T12:28:26;21.20;92.70
831;DHT22;397;50.564;7.272;2023-09-19T12:30:54;21.10;92.80
831;DHT22;397;50.564;7.272;2023-09-19T12:33:23;21.20;93.50
831;DHT22;397;50.564;7.272;2023-09-19T12:35:52;21.20;94.10
831;DHT22;397;50.564;7.272;2023-09-19T12:38:25;21.40;94.20
831;DHT22;397;50.564;7.272;2023-09-19T12:40:56;21.30;92.40
831;DHT22;397;50.564;7.272;2023-09-19T12:43:28;21.20;92.70
831;DHT22;397;50.564;7.272;2023-09-19T12:45:57;21.30;92.70
831;DHT22;397;50.564;7.272;2023-09-19T12:48:27;21.40;92.00
831;DHT22;397;50.564;7.272;2023-09-19T12:51:07;21.50;93.30
831;DHT22;397;50.564;7.272;2023-09-19T12:53:45;21.60;93.50
831;DHT22;397;50.564;7.272;2023-09-19T12:56:11;21.50;93.60
831;DHT22;397;50.564;7.272;2023-09-19T12:58:54;21.50;93.20
831;DHT22;397;50.564;7.272;2023-09-19T13:01:23;21.40;92.30
831;DHT22;397;50.564;7.272;2023-09-19T13:06:42;21.50;93.10
831;DHT22;397;50.564;7.272;2023-09-19T13:09:10;21.50;93.30
831;DHT22;397;50.564;7.272;2023-09-19T13:11:39;21.50;93.20
831;DHT22;397;50.564;7.272;2023-09-19T13:17:03;21.40;94.10
831;DHT22;397;50.564;7.272;2023-09-19T13:22:43;21.50;94.70
831;DHT22;397;50.564;7.272;2023-09-19T13:25:22;21.50;93.30
831;DHT22;397;50.564;7.272;2023-09-19T13:27:55;21.60;92.70
831;DHT22;397;50.564;7.272;2023-09-19T13:30:22;21.60;93.10
831;DHT22;397;50.564;7.272;2023-09-19T13:32:52;21.70;92.80
831;DHT22;397;50.564;7.272;2023-09-19T13:35:20;21.60;92.40
831;DHT22;397;50.564;7.272;2023-09-19T13:37:47;21.60;92.60
831;DHT22;397;50.564;7.272;2023-09-19T13:40:17;21.60;93.10
831;DHT22;397;50.564;7.272;2023-09-19T13:42:44;21.60;92.10
831;DHT22;397;50.564;7.272;2023-09-19T13:45:12;21.60;91.80
831;DHT22;397;50.564;7.272;2023-09-19T13:47:41;21.50;92.40
831;DHT22;397;50.564;7.272;2023-09-19T13:50:09;21.60;92.60
831;DHT22;397;50.564;7.272;2023-09-19T13:52:37;21.50;92.40
831;DHT22;397;50.564;7.272;2023-09-19T13:55:05;21.50;92.20
831;DHT22;397;50.564;7.272;2023-09-19T13:57:33;21.60;91.30
831;DHT22;397;50.564;7.272;2023-09-19T14:00:00;21.60;91.20
831;DHT22;397;50.564;7.272;2023-09-19T14:02:29;21.50;91.00
831;DHT22;397;50.564;7.272;2023-09-19T14:04:56;21.50;91.80
831;DHT22;397;50.564;7.272;2023-09-19T14:07:24;21.60;91.50
831;DHT22;397;50.564;7.272;2023-09-19T14:09:52;21.60;92.10
831;DHT22;397;50.564;7.272;2023-09-19T14:12:19;21.70;92.20
831;DHT22;397;50.564;7.272;2023-09-19T14:14:47;21.80;92.30
831;DHT22;397;50.564;7.272;2023-09-19T14:17:16;21.70;93.80
831;DHT22;397;50.564;7.272;2023-09-19T14:19:45;21.80;93.20
831;DHT22;397;50.564;7.272;2023-09-19T14:22:12;21.80;91.70
831;DHT22;397;50.564;7.272;2023-09-19T14:24:40;21.90;94.30
831;DHT22;397;50.564;7.272;2023-09-19T14:27:08;21.90;93.50
831;DHT22;397;50.564;7.272;2023-09-19T14:29:37;22.00;92.90
831;DHT22;397;50.564;7.272;2023-09-19T14:32:05;22.00;93.70
831;DHT22;397;50.564;7.272;2023-09-19T14:34:32;22.10;92.90
831;DHT22;397;50.564;7.272;2023-09-19T14:37:00;22.10;90.50
831;DHT22;397;50.564;7.272;2023-09-19T14:39:27;22.00;87.60
831;DHT22;397;50.564;7.272;2023-09-19T14:41:55;22.10;83.80
831;DHT22;397;50.564;7.272;2023-09-19T14:44:23;22.00;84.40
831;DHT22;397;50.564;7.272;2023-09-19T14:46:50;21.90;84.50
831;DHT22;397;50.564;7.272;2023-09-19T14:49:18;21.90;85.60
831;DHT22;397;50.564;7.272;2023-09-19T14:51:45;21.90;86.90
831;DHT22;397;50.564;7.272;2023-09-19T14:54:14;21.90;88.20
831;DHT22;397;50.564;7.272;2023-09-19T14:56:45;21.80;86.30
831;DHT22;397;50.564;7.272;2023-09-19T14:59:14;21.80;87.10
831;DHT22;397;50.564;7.272;2023-09-19T15:01:42;21.70;88.60
831;DHT22;397;50.564;7.272;2023-09-19T15:04:11;21.70;88.60
831;DHT22;397;50.564;7.272;2023-09-19T15:06:38;21.60;90.20
831;DHT22;397;50.564;7.272;2023-09-19T15:09:06;21.70;90.40
831;DHT22;397;50.564;7.272;2023-09-19T15:11:35;21.70;88.30
831;DHT22;397;50.564;7.272;2023-09-19T15:14:02;21.70;89.70
831;DHT22;397;50.564;7.272;2023-09-19T15:16:30;21.70;90.20
831;DHT22;397;50.564;7.272;2023-09-19T15:18:58;21.80;88.80
831;DHT22;397;50.564;7.272;2023-09-19T15:21:26;21.80;89.80
831;DHT22;397;50.564;7.272;2023-09-19T15:23:53;21.80;89.80
831;DHT22;397;50.564;7.272;2023-09-19T15:26:22;21.80;88.90
831;DHT22;397;50.564;7.272;2023-09-19T15:28:51;21.70;87.60
831;DHT22;397;50.564;7.272;2023-09-19T15:31:20;21.70;88.90
831;DHT22;397;50.564;7.272;2023-09-19T15:33:48;21.60;87.80
831;DHT22;397;50.564;7.272;2023-09-19T15:36:16;21.60;89.90
831;DHT22;397;50.564;7.272;2023-09-19T15:39:02;21.50;89.50
831;DHT22;397;50.564;7.272;2023-09-19T15:41:34;21.50;90.20
831;DHT22;397;50.564;7.272;2023-09-19T15:44:02;21.40;88.80
831;DHT22;397;50.564;7.272;2023-09-19T15:46:32;21.40;90.10
831;DHT22;397;50.564;7.272;2023-09-19T15:49:03;21.40;90.20
831;DHT22;397;50.564;7.272;2023-09-19T15:51:31;21.20;90.70
831;DHT22;397;50.564;7.272;2023-09-19T15:53:58;21.30;90.60
831;DHT22;397;50.564;7.272;2023-09-19T15:56:28;21.30;90.70
831;DHT22;397;50.564;7.272;2023-09-19T15:58:56;21.20;91.30
831;DHT22;397;50.564;7.272;2023-09-19T16:01:23;21.20;91.20
831;DHT22;397;50.564;7.272;2023-09-19T16:03:53;21.20;91.60
831;DHT22;397;50.564;7.272;2023-09-19T16:06:29;21.20;91.30
831;DHT22;397;50.564;7.272;2023-09-19T16:08:58;21.20;91.90
831;DHT22;397;50.564;7.272;2023-09-19T16:11:23;21.20;92.20
831;DHT22;397;50.564;7.272;2023-09-19T16:13:52;21.30;92.30
831;DHT22;397;50.564;7.272;2023-09-19T16:16:21;21.30;92.50
831;DHT22;397;50.564;7.272;2023-09-19T16:18:54;21.30;93.10
831;DHT22;397;50.564;7.272;2023-09-19T16:21:27;21.20;92.90
831;DHT22;397;50.564;7.272;2023-09-19T16:23:57;21.30;93.10
831;DHT22;397;50.564;7.272;2023-09-19T16:26:26;21.30;94.10
831;DHT22;397;50.564;7.272;2023-09-19T16:28:56;21.20;93.10
831;DHT22;397;50.564;7.272;2023-09-19T16:31:31;21.20;93.60
831;DHT22;397;50.564;7.272;2023-09-19T16:33:56;21.30;92.90
831;DHT22;397;50.564;7.272;2023-09-19T16:36:25;21.30;93.40
831;DHT22;397;50.564;7.272;2023-09-19T16:38:54;21.20;94.10
831;DHT22;397;50.564;7.272;2023-09-19T16:41:22;21.20;94.40
831;DHT22;397;50.564;7.272;2023-09-19T16:43:50;21.20;94.80
831;DHT22;397;50.564;7.272;2023-09-19T16:46:17;21.20;95.40
831;DHT22;397;50.564;7.272;2023-09-19T16:48:46;21.10;95.70
831;DHT22;397;50.564;7.272;2023-09-19T16:51:16;21.10;95.70
831;DHT22;397;50.564;7.272;2023-09-19T16:53:44;21.10;95.90
831;DHT22;397;50.564;7.272;2023-09-19T16:56:19;21.00;95.90
831;DHT22;397;50.564;7.272;2023-09-19T16:58:48;21.00;96.60
831;DHT22;397;50.564;7.272;2023-09-19T17:01:17;21.00;96.50
831;DHT22;397;50.564;7.272;2023-09-19T17:03:49;20.90;96.90
831;DHT22;397;50.564;7.272;2023-09-19T17:06:17;20.90;97.30
831;DHT22;397;50.564;7.272;2023-09-19T17:08:46;20.90;97.80
831;DHT22;397;50.564;7.272;2023-09-19T17:11:16;20.90;97.50
831;DHT22;397;50.564;7.272;2023-09-19T17:13:45;20.80;98.30
831;DHT22;397;50.564;7.272;2023-09-19T17:16:17;20.80;98.50
831;DHT22;397;50.564;7.272;2023-09-19T17:18:52;20.80;98.40
831;DHT22;397;50.564;7.272;2023-09-19T17:21:20;20.70;99.10
831;DHT22;397;50.564;7.272;2023-09-19T17:23:48;20.60;99.70
831;DHT22;397;50.564;7.272;2023-09-19T17:26:15;20.60;99.50
831;DHT22;397;50.564;7.272;2023-09-19T17:28:52;20.60;99.80
831;DHT22;397;50.564;7.272;2023-09-19T17:31:23;20.60;99.90
831;DHT22;397;50.564;7.272;2023-09-19T17:33:51;20.60;99.90
831;DHT22;397;50.564;7.272;2023-09-19T17:36:20;20.50;99.90